首页
METAR-TAF:

METAR-TAF

机场 :

门多萨, 阿根廷

纬度: 32-50S, 经度: 068-47W, 海拔: 705米

当前天气观测

该预报发布于36分钟前的18:00 UTC
风速4节,风向
温度 23°C
湿度 36%
气压 1012 hPa
能见度10公里或以上
1500米以下无云,无积雨云

METAR: SAME 171800Z 09004KT CAVOK 23/07 Q1012

时间: 15:36 (18:36 UTC)

预报

该预报发布于1小时和36分钟前的17:00 UTC
预报有效从17日的 18点(UTC)到 18日的 18点(UTC)
风速10节,风向东北
能见度10公里或以上
少量云层高于4000英尺
散云层高于8000英尺
成为
从 18日的 12点(UTC)到 18日的 14点(UTC)
风速15节,风向东南
能見度: 8000
散云层高于4000英尺
散云层高于7000英尺
尘/沙旋风

TAF: SAME 171700Z 1718/1818 05010KT 9999 FEW040 SCT080 TX23/1720Z TN06/1810Z BECMG 1812/1814 14015KT 8000 PO SCT040 SCT070

超过4000个机场的气象观测和天气预报(METAR&TAF报告)。

可查询的气象台以黄色和红色小点在地图上表示。

将鼠标移到小点上方,可查看气象台名称。

然后点击查看天气观测和预报。

如需切换地图:点击带黑十字的绿色按钮放大地图;点击带横线的绿色按钮缩小地图;或者点击绿色箭头查看邻近地区的地图。


METAR-TAF: